Time;durP1;ratioP1;P1;durP2;ratioP2;P2;SDS_P1;SDS_P2;PMS_P1;PMS_P2;Temp;Humidity;BMP_temperature;BMP_pressure;BME280_temperature;BME280_humidity;BME280_pressure;Samples;Min_cycle;Max_cycle;Signal;HPM_P1;HPM_P2
2023/04/30 00:01:43;;;;;;;6.30;5.80;;;;;;;9.13;nan;97204.66;4935282;28;20265;-58
2023/04/30 00:04:12;;;;;;;7.00;6.43;;;;;;;9.03;nan;97191.66;4904738;28;20214;-60
2023/04/30 00:06:40;;;;;;;6.90;6.40;;;;;;;9.10;nan;97213.75;4934652;28;20215;-59
2023/04/30 00:09:08;;;;;;;7.03;6.63;;;;;;;9.08;nan;97199.88;4929497;28;20276;-59
2023/04/30 00:11:35;;;;;;;6.03;5.63;;;;;;;9.04;nan;97208.34;4933885;28;20218;-58
2023/04/30 00:14:03;;;;;;;6.50;6.00;;;;;;;8.94;nan;97190.03;4908335;28;20214;-59
2023/04/30 00:16:31;;;;;;;6.17;5.67;;;;;;;9.08;nan;97213.09;4931999;28;20348;-59
2023/04/30 00:18:59;;;;;;;6.53;6.10;;;;;;;9.03;nan;97217.25;4926858;28;20465;-60
2023/04/30 00:21:28;;;;;;;6.37;5.87;;;;;;;9.01;nan;97209.50;4897041;28;20275;-60
2023/04/30 00:23:56;;;;;;;6.17;5.77;;;;;;;9.02;nan;97211.13;4931906;28;20235;-60
2023/04/30 00:26:23;;;;;;;7.07;6.57;;;;;;;9.05;nan;97212.63;4934081;28;20677;-61
2023/04/30 00:28:51;;;;;;;6.83;6.33;;;;;;;8.98;nan;97215.97;4935768;28;20234;-60
2023/04/30 00:31:19;;;;;;;7.43;6.80;;;;;;;8.97;nan;97206.41;4899849;28;20211;-58
2023/04/30 00:33:46;;;;;;;7.50;6.90;;;;;;;9.03;nan;97211.97;4937282;28;20224;-59
2023/04/30 00:36:14;;;;;;;7.03;6.63;;;;;;;8.81;nan;97196.72;4884414;28;20232;-57
2023/04/30 00:38:43;;;;;;;7.07;6.43;;;;;;;8.99;nan;97208.84;4924014;28;20235;-62
2023/04/30 00:41:11;;;;;;;6.73;6.23;;;;;;;8.97;nan;97213.47;4933453;28;20785;-57
2023/04/30 00:43:38;;;;;;;6.53;6.13;;;;;;;8.91;nan;97211.53;4905891;28;20225;-59
2023/04/30 00:46:06;;;;;;;7.17;6.67;;;;;;;8.88;nan;97209.25;4907368;28;20240;-60
2023/04/30 00:48:34;;;;;;;7.17;6.67;;;;;;;8.87;nan;97218.16;4931964;28;20234;-59
2023/04/30 00:51:03;;;;;;;7.00;6.50;;;;;;;8.93;nan;97217.47;4885018;28;20658;-59
2023/04/30 00:53:31;;;;;;;6.80;6.30;;;;;;;8.75;nan;97202.69;4929985;28;20306;-58
2023/04/30 00:56:00;;;;;;;6.90;6.40;;;;;;;8.86;nan;97219.97;4933372;28;20903;-58
2023/04/30 00:58:27;;;;;;;7.10;6.60;;;;;;;8.74;nan;97216.06;4935235;28;20238;-58
2023/04/30 01:00:55;;;;;;;7.60;7.10;;;;;;;8.72;nan;97220.69;4906863;28;20234;-59
2023/04/30 01:03:23;;;;;;;7.90;7.20;;;;;;;8.75;nan;97225.63;4928724;28;20211;-59
2023/04/30 01:05:52;;;;;;;7.90;7.30;;;;;;;8.76;nan;97216.72;4935008;28;20920;-57
2023/04/30 01:08:20;;;;;;;8.47;7.77;;;;;;;8.78;nan;97222.66;4885257;28;20649;-60
2023/04/30 01:10:54;;;;;;;8.00;7.40;;;;;;;8.78;nan;97230.56;4930973;28;20245;-60
2023/04/30 01:13:32;;;;;;;8.70;8.10;;;;;;;8.79;nan;97232.22;4933721;28;20573;-58
2023/04/30 01:16:03;;;;;;;9.17;8.30;;;;;;;8.82;nan;97235.34;4901024;28;20729;-61
2023/04/30 01:18:35;;;;;;;8.43;7.80;;;;;;;8.82;nan;97245.94;4934242;28;20246;-59
2023/04/30 01:21:05;;;;;;;8.57;7.87;;;;;;;8.67;nan;97224.69;4937394;28;20289;-61
2023/04/30 01:23:42;;;;;;;9.00;8.20;;;;;;;8.80;nan;97239.16;4884828;28;20695;-59
2023/04/30 01:26:15;;;;;;;8.40;7.80;;;;;;;8.66;nan;97228.31;4934234;28;20972;-59
2023/04/30 01:28:45;;;;;;;8.23;7.73;;;;;;;8.77;nan;97245.63;4938905;28;20222;-58
2023/04/30 01:31:14;;;;;;;9.00;8.27;;;;;;;8.71;nan;97256.84;4894847;28;22448;-59
2023/04/30 01:33:42;;;;;;;8.47;7.87;;;;;;;8.67;nan;97253.75;4933042;28;20809;-57
2023/04/30 01:36:30;;;;;;;8.67;7.97;;;;;;;8.64;nan;97254.06;4933546;28;20429;-61
2023/04/30 01:39:20;;;;;;;8.53;7.90;;;;;;;8.65;nan;97250.44;4882511;28;20418;-59
2023/04/30 01:41:52;;;;;;;7.77;7.17;;;;;;;8.63;nan;97256.88;4929294;28;20549;-58
2023/04/30 01:44:29;;;;;;;8.30;7.60;;;;;;;8.64;nan;97262.00;4937260;28;20201;-60
2023/04/30 01:47:05;;;;;;;9.07;8.37;;;;;;;8.61;nan;97267.63;4905354;28;20214;-60
2023/04/30 01:49:42;;;;;;;7.97;7.37;;;;;;;8.60;nan;97265.13;4933039;28;20276;-60
2023/04/30 01:52:16;;;;;;;8.77;7.97;;;;;;;8.45;nan;97255.25;4933823;28;20265;-59
2023/04/30 01:54:49;;;;;;;8.60;7.93;;;;;;;8.55;nan;97270.94;4883192;28;20494;-58
2023/04/30 01:57:21;;;;;;;8.57;7.90;;;;;;;8.43;nan;97259.88;4925556;28;20238;-58
2023/04/30 01:59:50;;;;;;;8.50;7.90;;;;;;;8.55;nan;97273.59;4933230;28;20492;-59
2023/04/30 02:02:19;;;;;;;9.40;8.60;;;;;;;8.53;nan;97271.09;4906360;28;20288;-59
2023/04/30 02:04:46;;;;;;;8.80;8.10;;;;;;;8.51;nan;97278.38;4934015;28;20418;-62
2023/04/30 02:07:21;;;;;;;9.10;8.43;;;;;;;8.55;nan;97284.16;4931475;28;20284;-58
2023/04/30 02:09:48;;;;;;;9.33;8.63;;;;;;;8.50;nan;97282.00;4883312;28;20225;-58
2023/04/30 02:12:16;;;;;;;9.53;8.83;;;;;;;8.46;nan;97285.94;4910725;28;21059;-58
2023/04/30 02:14:44;;;;;;;9.43;8.53;;;;;;;8.49;nan;97284.78;4924079;28;20730;-58
2023/04/30 02:17:13;;;;;;;9.60;8.90;;;;;;;8.37;nan;97266.66;4904469;28;20245;-60
2023/04/30 02:19:41;;;;;;;9.30;8.60;;;;;;;8.45;nan;97280.81;4921471;28;20426;-61
2023/04/30 02:22:09;;;;;;;8.60;8.00;;;;;;;8.38;nan;97259.56;4928951;28;20650;-58
2023/04/30 02:24:36;;;;;;;9.30;8.70;;;;;;;8.54;nan;97272.75;4930982;28;20281;-62
2023/04/30 02:27:04;;;;;;;10.07;9.20;;;;;;;8.53;nan;97278.22;4890158;28;20276;-59
2023/04/30 02:29:32;;;;;;;8.83;8.17;;;;;;;8.53;nan;97276.38;4935993;28;20291;-59
2023/04/30 02:31:59;;;;;;;9.37;8.57;;;;;;;8.54;nan;97282.50;4936694;28;21006;-60
2023/04/30 02:34:29;;;;;;;10.17;9.00;;;;;;;8.55;nan;97281.50;4907129;28;20210;-59
2023/04/30 02:36:56;;;;;;;9.10;8.40;;;;;;;8.52;nan;97287.09;4939766;28;20804;-58
2023/04/30 02:39:24;;;;;;;8.83;8.23;;;;;;;8.54;nan;97290.44;4930567;28;20222;-59
2023/04/30 02:41:52;;;;;;;9.90;9.00;;;;;;;8.52;nan;97287.09;4891742;28;20238;-61
2023/04/30 02:44:19;;;;;;;8.63;7.87;;;;;;;8.44;nan;97287.09;4933576;28;20206;-59
2023/04/30 02:46:47;;;;;;;9.30;8.60;;;;;;;8.42;nan;97287.28;4938858;28;20210;-60
2023/04/30 02:49:14;;;;;;;9.47;8.53;;;;;;;8.35;nan;97275.75;4908673;28;20241;-59
2023/04/30 02:51:44;;;;;;;9.23;8.63;;;;;;;8.32;nan;97289.25;4935505;28;20511;-61
2023/04/30 02:54:11;;;;;;;9.47;8.73;;;;;;;8.30;nan;97288.59;4936469;28;20202;-60
2023/04/30 02:56:39;;;;;;;9.17;8.47;;;;;;;8.33;nan;97281.19;4878163;28;20736;-59
2023/04/30 02:59:07;;;;;;;9.63;8.93;;;;;;;8.38;nan;97283.31;4936975;28;20759;-58
2023/04/30 03:01:34;;;;;;;9.03;8.33;;;;;;;8.32;nan;97289.25;4936037;28;20230;-58
2023/04/30 03:04:03;;;;;;;10.43;9.63;;;;;;;8.18;nan;97270.47;4936450;28;20486;-61
2023/04/30 03:06:31;;;;;;;9.80;9.00;;;;;;;8.34;nan;97297.84;4908220;28;20896;-61
2023/04/30 03:09:00;;;;;;;10.17;9.43;;;;;;;8.33;nan;97291.75;4931958;28;20226;-60
2023/04/30 03:11:28;;;;;;;10.73;9.93;;;;;;;8.31;nan;97298.16;4926668;28;20815;-60
2023/04/30 03:13:55;;;;;;;9.90;9.00;;;;;;;8.32;nan;97300.66;4890928;28;20579;-59
2023/04/30 03:16:23;;;;;;;10.73;10.00;;;;;;;8.29;nan;97298.34;4933309;28;20324;-59
2023/04/30 03:18:51;;;;;;;11.10;10.30;;;;;;;8.30;nan;97297.34;4935774;28;20831;-61
2023/04/30 03:21:18;;;;;;;10.53;9.70;;;;;;;8.32;nan;97300.66;4900222;28;20303;-59
2023/04/30 03:23:46;;;;;;;10.53;9.73;;;;;;;8.31;nan;97295.53;4915999;28;20229;-63
2023/04/30 03:26:15;;;;;;;10.90;9.87;;;;;;;8.31;nan;97301.63;4933299;28;20741;-62
2023/04/30 03:28:42;;;;;;;10.77;9.87;;;;;;;8.28;nan;97293.22;4887445;28;20754;-59
2023/04/30 03:31:10;;;;;;;10.87;10.03;;;;;;;8.13;nan;97271.94;4932570;28;20293;-60
2023/04/30 03:33:38;;;;;;;10.97;9.97;;;;;;;8.29;nan;97289.59;4935776;28;20487;-61
2023/04/30 03:36:06;;;;;;;10.93;10.03;;;;;;;8.31;nan;97298.16;4905758;28;20626;-59
2023/04/30 03:38:33;;;;;;;11.70;10.80;;;;;;;8.23;nan;97293.75;4931117;28;20568;-59
2023/04/30 03:41:01;;;;;;;11.10;10.07;;;;;;;8.21;nan;97296.53;4934558;28;20276;-59
2023/04/30 03:43:30;;;;;;;10.13;9.43;;;;;;;8.30;nan;97297.34;4885137;28;21273;-61
2023/04/30 03:45:58;;;;;;;12.40;11.30;;;;;;;8.27;nan;97289.78;4939846;28;20628;-61
2023/04/30 03:48:26;;;;;;;11.53;10.53;;;;;;;8.23;nan;97296.38;4932348;28;20345;-61
2023/04/30 03:50:53;;;;;;;11.77;10.90;;;;;;;8.19;nan;97293.22;4940794;28;20285;-62
2023/04/30 03:53:21;;;;;;;11.07;10.17;;;;;;;8.00;nan;97277.75;4905140;28;20730;-61
2023/04/30 03:55:49;;;;;;;11.73;10.70;;;;;;;8.09;nan;97296.03;4936018;28;20218;-59
2023/04/30 03:58:17;;;;;;;11.63;10.63;;;;;;;8.05;nan;97286.00;4933138;28;20238;-60
2023/04/30 04:00:47;;;;;;;12.43;11.50;;;;;;;8.05;nan;97292.06;4895376;28;20682;-61
2023/04/30 04:03:14;;;;;;;11.90;10.90;;;;;;;8.06;nan;97290.28;4932517;28;20234;-62
2023/04/30 04:05:42;;;;;;;11.30;10.30;;;;;;;8.00;nan;97290.94;4936255;28;20276;-61
2023/04/30 04:08:10;;;;;;;11.50;10.70;;;;;;;8.04;nan;97289.63;4905388;28;20238;-59
2023/04/30 04:10:38;;;;;;;11.73;10.83;;;;;;;8.02;nan;97294.25;4937433;28;20541;-62
2023/04/30 04:13:06;;;;;;;12.60;11.40;;;;;;;8.03;nan;97296.69;4938792;28;20490;-60
2023/04/30 04:15:34;;;;;;;12.00;11.00;;;;;;;8.00;nan;97297.03;4887897;28;21129;-65
2023/04/30 04:18:03;;;;;;;12.20;11.20;;;;;;;7.90;nan;97297.19;4934190;28;20284;-59
2023/04/30 04:20:31;;;;;;;12.47;11.47;;;;;;;7.91;nan;97298.84;4926098;28;20655;-61
2023/04/30 04:22:58;;;;;;;12.60;11.70;;;;;;;7.84;nan;97297.03;4901437;28;21035;-59
2023/04/30 04:25:26;;;;;;;12.60;11.50;;;;;;;7.83;nan;97298.84;4932330;28;20796;-57
2023/04/30 04:27:54;;;;;;;12.47;11.37;;;;;;;7.79;nan;97295.72;4926064;28;20234;-61
2023/04/30 04:30:21;;;;;;;13.23;12.23;;;;;;;7.75;nan;97304.91;4932088;28;20273;-62
2023/04/30 04:32:52;;;;;;;12.03;11.00;;;;;;;7.75;nan;97304.91;4895790;28;20304;-59
2023/04/30 04:35:21;;;;;;;12.83;11.63;;;;;;;7.67;nan;97311.03;4929799;28;20221;-61
2023/04/30 04:37:49;;;;;;;13.30;12.20;;;;;;;7.70;nan;97311.69;4933136;28;20226;-61
2023/04/30 04:40:17;;;;;;;13.07;12.03;;;;;;;7.76;nan;97316.31;4906976;28;20289;-61
2023/04/30 04:42:45;;;;;;;13.33;12.23;;;;;;;7.73;nan;97314.81;4938563;28;20705;-60
2023/04/30 04:45:14;;;;;;;12.87;11.87;;;;;;;7.84;nan;97318.94;4935876;28;20214;-63
2023/04/30 04:47:42;;;;;;;13.57;12.37;;;;;;;7.86;nan;97326.72;4887810;28;20828;-58
2023/04/30 04:50:10;;;;;;;14.13;12.90;;;;;;;7.97;nan;97329.03;4932576;28;20211;-61
2023/04/30 04:52:40;;;;;;;13.10;12.10;;;;;;;7.96;nan;97319.47;4923080;28;20301;-63
2023/04/30 04:55:08;;;;;;;13.13;12.00;;;;;;;8.02;nan;97329.34;4907873;28;20526;-62
2023/04/30 04:57:36;;;;;;;12.63;11.67;;;;;;;8.12;nan;97323.91;4912626;28;20427;-62
2023/04/30 05:00:06;;;;;;;14.30;13.00;;;;;;;8.21;nan;97322.13;4913117;28;20568;-64
2023/04/30 05:02:34;;;;;;;13.00;11.87;;;;;;;8.21;nan;97304.44;4906423;28;20325;-62
2023/04/30 05:05:02;;;;;;;12.70;11.67;;;;;;;8.39;nan;97328.03;4898455;28;20451;-59
2023/04/30 05:07:30;;;;;;;12.73;11.70;;;;;;;8.49;nan;97330.53;4934115;28;20579;-61
2023/04/30 05:09:59;;;;;;;13.33;12.10;;;;;;;8.66;nan;97330.50;4906073;28;20612;-62
2023/04/30 05:12:27;;;;;;;12.17;11.07;;;;;;;8.69;nan;97322.22;4936204;28;20705;-62
2023/04/30 05:14:55;;;;;;;13.47;12.17;;;;;;;8.79;nan;97328.16;4932593;28;20275;-64
2023/04/30 05:17:22;;;;;;;12.47;11.50;;;;;;;8.74;nan;97332.31;4932958;28;20628;-64
2023/04/30 05:19:50;;;;;;;12.23;11.17;;;;;;;8.91;nan;97328.66;4885809;28;20593;-62
2023/04/30 05:22:18;;;;;;;12.43;11.27;;;;;;;8.92;nan;97332.09;4929749;28;20648;-64
2023/04/30 05:24:45;;;;;;;12.57;11.57;;;;;;;9.01;nan;97327.63;4934383;28;20265;-60
2023/04/30 05:27:15;;;;;;;12.83;11.70;;;;;;;9.06;nan;97327.94;4906601;28;20296;-62
2023/04/30 05:29:43;;;;;;;11.93;10.90;;;;;;;9.23;nan;97332.13;4933730;28;20202;-62
2023/04/30 05:32:10;;;;;;;13.67;12.40;;;;;;;9.13;nan;97328.88;4930873;28;20440;-61
2023/04/30 05:34:38;;;;;;;12.43;11.43;;;;;;;9.01;nan;97331.06;4886102;28;20603;-61
2023/04/30 05:37:06;;;;;;;11.37;10.57;;;;;;;8.94;nan;97320.38;4931480;28;20289;-62
2023/04/30 05:39:33;;;;;;;13.33;12.13;;;;;;;8.97;nan;97325.31;4928525;28;20206;-63
2023/04/30 05:42:02;;;;;;;12.63;11.63;;;;;;;8.88;nan;97325.50;4904516;28;20499;-61
2023/04/30 05:44:31;;;;;;;13.10;12.00;;;;;;;9.00;nan;97331.25;4933146;28;20211;-64
2023/04/30 05:46:58;;;;;;;14.13;13.03;;;;;;;9.25;nan;97326.69;4932482;28;20401;-61
2023/04/30 05:49:27;;;;;;;13.60;12.67;;;;;;;9.41;nan;97336.38;4935460;28;20201;-56
2023/04/30 05:51:54;;;;;;;13.57;12.47;;;;;;;9.40;nan;97342.66;4865006;28;20633;-59
2023/04/30 05:54:22;;;;;;;12.87;11.80;;;;;;;9.39;nan;97333.88;4937106;28;20210;-58
2023/04/30 05:56:50;;;;;;;12.80;11.67;;;;;;;9.68;nan;97343.00;4910800;28;20564;-61
2023/04/30 05:59:18;;;;;;;13.23;12.23;;;;;;;9.99;nan;97342.16;4939094;28;20210;-62
2023/04/30 06:01:47;;;;;;;12.43;11.53;;;;;;;10.21;nan;97337.00;4912623;28;20503;-61
2023/04/30 06:04:14;;;;;;;12.83;11.83;;;;;;;10.35;nan;97337.25;4929359;28;20240;-61
2023/04/30 06:06:42;;;;;;;13.50;12.40;;;;;;;10.49;nan;97333.84;4891110;28;20790;-57
2023/04/30 06:09:10;;;;;;;13.10;11.80;;;;;;;10.64;nan;97341.81;4934054;28;20416;-61
2023/04/30 06:11:38;;;;;;;13.67;12.50;;;;;;;10.51;nan;97342.41;4939417;28;20656;-58
2023/04/30 06:14:08;;;;;;;12.93;11.90;;;;;;;10.66;nan;97339.81;4907519;28;20214;-55
2023/04/30 06:16:36;;;;;;;12.37;11.37;;;;;;;10.75;nan;97343.19;4936499;28;20222;-60
2023/04/30 06:19:05;;;;;;;13.43;12.33;;;;;;;10.87;nan;97332.97;4937184;28;20230;-59
2023/04/30 06:21:32;;;;;;;12.93;11.73;;;;;;;10.93;nan;97337.56;4891587;28;20218;-59
2023/04/30 06:24:00;;;;;;;13.17;12.10;;;;;;;11.07;nan;97340.38;4931884;28;20265;-60
2023/04/30 06:26:28;;;;;;;13.20;12.03;;;;;;;11.10;nan;97350.63;4935942;28;20199;-62
2023/04/30 06:28:55;;;;;;;13.60;12.50;;;;;;;11.12;nan;97346.78;4906763;28;20638;-61
2023/04/30 06:31:23;;;;;;;13.80;12.60;;;;;;;11.10;nan;97316.13;4933913;28;20210;-60
2023/04/30 06:33:51;;;;;;;12.83;11.87;;;;;;;11.20;nan;97334.44;4934287;28;20272;-59
2023/04/30 06:36:20;;;;;;;12.90;11.87;;;;;;;11.41;nan;97342.47;4935149;28;20610;-60
2023/04/30 06:38:48;;;;;;;13.23;12.23;;;;;;;11.52;nan;97333.19;4887051;28;20426;-62
2023/04/30 06:41:15;;;;;;;12.17;11.27;;;;;;;11.60;nan;97342.88;4938458;28;20430;-62
2023/04/30 06:43:43;;;;;;;12.77;11.67;;;;;;;11.72;nan;97329.94;4904060;28;20262;-62
2023/04/30 06:46:11;;;;;;;13.57;12.53;;;;;;;12.04;nan;97330.50;4935255;28;20943;-60
2023/04/30 06:48:39;;;;;;;12.33;11.10;;;;;;;11.99;nan;97333.69;4938645;28;20739;-57
2023/04/30 06:51:06;;;;;;;11.73;10.93;;;;;;;12.35;nan;97337.34;4933501;28;20655;-59
2023/04/30 06:53:37;;;;;;;12.10;11.20;;;;;;;12.48;nan;97339.25;4885519;28;20276;-62
2023/04/30 06:56:06;;;;;;;13.23;12.13;;;;;;;12.67;nan;97337.75;4914155;28;20873;-60
2023/04/30 06:58:33;;;;;;;12.83;11.73;;;;;;;12.63;nan;97341.81;4907902;28;20720;-58
2023/04/30 07:01:01;;;;;;;12.70;11.53;;;;;;;12.80;nan;97325.59;4917197;28;20289;-62
2023/04/30 07:03:29;;;;;;;13.73;12.73;;;;;;;12.94;nan;97334.47;4932751;28;20805;-63
2023/04/30 07:05:56;;;;;;;13.77;12.57;;;;;;;13.10;nan;97338.66;4891237;28;20218;-62
2023/04/30 07:08:24;;;;;;;13.13;11.93;;;;;;;13.16;nan;97332.56;4886530;28;20230;-63
2023/04/30 07:10:53;;;;;;;11.50;10.60;;;;;;;12.99;nan;97332.06;4908836;28;20222;-63
2023/04/30 07:13:21;;;;;;;13.03;11.93;;;;;;;12.88;nan;97333.41;4906122;28;20496;-61
2023/04/30 07:15:48;;;;;;;12.60;11.60;;;;;;;13.08;nan;97338.03;4936818;28;20215;-62
2023/04/30 07:18:16;;;;;;;13.13;11.90;;;;;;;12.77;nan;97326.78;4932016;28;20341;-60
2023/04/30 07:20:44;;;;;;;11.60;10.47;;;;;;;12.71;nan;97338.22;4921462;28;20214;-61
2023/04/30 07:23:12;;;;;;;12.03;11.03;;;;;;;12.97;nan;97332.22;4885282;28;20795;-62
2023/04/30 07:25:39;;;;;;;12.53;11.43;;;;;;;12.97;nan;97323.44;4937717;28;20683;-62
2023/04/30 07:28:08;;;;;;;11.67;10.67;;;;;;;12.80;nan;97291.84;4923990;28;20230;-62
2023/04/30 07:30:36;;;;;;;11.30;10.43;;;;;;;13.07;nan;97328.38;4910322;28;20295;-62
2023/04/30 07:33:04;;;;;;;11.30;10.30;;;;;;;12.96;nan;97327.94;4936923;28;20248;-62
2023/04/30 07:35:31;;;;;;;10.80;9.90;;;;;;;12.94;nan;97337.13;4937599;28;20580;-61
2023/04/30 07:37:59;;;;;;;10.27;9.23;;;;;;;12.97;nan;97331.44;4886675;28;20324;-62
2023/04/30 07:40:27;;;;;;;10.60;9.70;;;;;;;13.10;nan;97331.50;4887016;28;20225;-63
2023/04/30 07:43:02;;;;;;;10.03;9.30;;;;;;;13.11;nan;97309.19;4910983;28;20386;-61
2023/04/30 07:45:32;;;;;;;12.20;11.17;;;;;;;13.50;nan;97322.91;4907980;28;20521;-63
2023/04/30 07:48:01;;;;;;;10.30;9.50;;;;;;;13.56;nan;97330.09;4930447;28;20779;-61
2023/04/30 07:50:32;;;;;;;11.00;10.10;;;;;;;13.45;nan;97328.81;4913352;28;20717;-62
2023/04/30 07:53:01;;;;;;;11.37;10.47;;;;;;;13.26;nan;97337.53;4932481;28;20214;-61
2023/04/30 07:55:29;;;;;;;10.20;9.47;;;;;;;13.24;nan;97332.38;4889957;28;20222;-60
2023/04/30 07:57:57;;;;;;;10.57;9.67;;;;;;;13.25;nan;97334.03;4936219;28;20305;-62
2023/04/30 08:00:25;;;;;;;12.47;10.13;;;;;;;13.23;nan;97311.28;4907899;28;20210;-62
2023/04/30 08:02:54;;;;;;;11.27;10.17;;;;;;;13.21;nan;97337.25;4929687;28;20206;-62
2023/04/30 08:05:22;;;;;;;11.60;10.50;;;;;;;12.78;nan;97330.28;4933692;28;20662;-60
2023/04/30 08:07:50;;;;;;;9.87;9.10;;;;;;;13.28;nan;97340.81;4933761;28;20398;-61
2023/04/30 08:10:17;;;;;;;10.77;9.97;;;;;;;14.26;nan;97339.66;4884917;28;20309;-61
2023/04/30 08:12:45;;;;;;;9.83;8.90;;;;;;;15.43;nan;97326.81;4935493;28;20280;-61
2023/04/30 08:15:13;;;;;;;10.30;9.47;;;;;;;15.59;nan;97328.97;4936007;28;20207;-61
2023/04/30 08:17:41;;;;;;;9.97;9.23;;;;;;;15.80;nan;97339.56;4902979;28;20408;-60
2023/04/30 08:20:10;;;;;;;10.30;9.40;;;;;;;15.25;nan;97338.97;4933903;28;20500;-61
2023/04/30 08:22:38;;;;;;;9.20;8.50;;;;;;;14.79;nan;97337.22;4933611;28;20214;-60
2023/04/30 08:25:06;;;;;;;8.97;8.27;;;;;;;14.31;nan;97341.72;4889603;28;21087;-61
2023/04/30 08:27:34;;;;;;;9.73;8.93;;;;;;;14.07;nan;97338.63;4903204;28;20237;-62
2023/04/30 08:30:02;;;;;;;9.20;8.40;;;;;;;13.92;nan;97338.78;4933614;28;20848;-62
2023/04/30 08:32:30;;;;;;;9.13;8.30;;;;;;;13.57;nan;97339.72;4900965;28;20673;-64
2023/04/30 08:34:58;;;;;;;8.30;7.70;;;;;;;13.41;nan;97343.50;4931298;28;20994;-60
2023/04/30 08:37:27;;;;;;;8.13;7.53;;;;;;;13.09;nan;97337.03;4931936;28;20219;-61
2023/04/30 08:39:54;;;;;;;8.17;7.57;;;;;;;12.93;nan;97338.16;4933960;28;20214;-62
2023/04/30 08:42:25;;;;;;;9.00;8.20;;;;;;;12.83;nan;97341.97;4888564;28;20218;-62
2023/04/30 08:44:53;;;;;;;8.77;8.07;;;;;;;12.98;nan;97341.84;4912052;28;20234;-63
2023/04/30 08:47:22;;;;;;;9.40;8.70;;;;;;;13.35;nan;97341.66;4909964;28;20234;-62
2023/04/30 08:49:50;;;;;;;9.07;8.37;;;;;;;13.41;nan;97345.34;4915788;28;20218;-62
2023/04/30 08:52:19;;;;;;;8.80;8.00;;;;;;;13.25;nan;97347.31;4929649;28;20206;-62
2023/04/30 08:54:48;;;;;;;7.80;7.20;;;;;;;13.42;nan;97344.31;4935542;28;20257;-62
2023/04/30 08:57:16;;;;;;;7.20;6.70;;;;;;;13.55;nan;97343.59;4889936;28;20745;-59
2023/04/30 08:59:45;;;;;;;7.93;7.43;;;;;;;13.74;nan;97347.34;4912558;28;20214;-59
2023/04/30 09:02:13;;;;;;;6.87;6.47;;;;;;;13.99;nan;97330.81;4925107;28;20320;-60
2023/04/30 09:04:40;;;;;;;6.97;6.47;;;;;;;14.47;nan;97343.97;4891507;28;20233;-59
2023/04/30 09:07:10;;;;;;;7.80;7.13;;;;;;;14.99;nan;97331.84;4927376;28;20521;-59
2023/04/30 09:09:39;;;;;;;10.23;7.93;;;;;;;14.79;nan;97337.22;4903246;28;21816;-61
2023/04/30 09:12:14;;;;;;;6.97;6.47;;;;;;;14.99;nan;97335.34;4888237;28;20738;-59
2023/04/30 09:14:58;;;;;;;6.63;6.17;;;;;;;14.63;nan;97347.28;4908921;28;20738;-63
2023/04/30 09:17:26;;;;;;;7.20;6.50;;;;;;;14.39;nan;97343.34;4925442;28;20491;-63
2023/04/30 09:19:54;;;;;;;6.83;6.23;;;;;;;14.54;nan;97343.16;4881231;28;20211;-60
2023/04/30 09:22:23;;;;;;;6.27;5.67;;;;;;;14.16;nan;97345.38;4920640;28;20997;-60
2023/04/30 09:24:52;;;;;;;5.43;4.87;;;;;;;14.02;nan;97327.75;4931829;28;20242;-61
2023/04/30 09:27:22;;;;;;;5.23;4.87;;;;;;;13.92;nan;97341.44;4922648;28;20459;-61
2023/04/30 09:29:50;;;;;;;5.30;4.97;;;;;;;13.97;nan;97343.53;4890573;28;20218;-60
2023/04/30 09:32:18;;;;;;;5.43;5.03;;;;;;;14.01;nan;97334.91;4932290;28;20410;-63
2023/04/30 09:34:45;;;;;;;5.93;5.47;;;;;;;14.13;nan;97337.00;4906572;28;20959;-61
2023/04/30 09:37:14;;;;;;;6.57;5.97;;;;;;;14.94;nan;97337.81;4914609;28;20841;-63
2023/04/30 09:39:50;;;;;;;5.97;5.47;;;;;;;16.00;nan;97318.09;4904097;28;20417;-61
2023/04/30 09:42:19;;;;;;;5.60;5.20;;;;;;;16.23;nan;97319.41;4934913;28;20206;-62
2023/04/30 09:44:48;;;;;;;5.23;4.93;;;;;;;16.65;nan;97327.69;4892666;28;20237;-59
2023/04/30 09:47:17;;;;;;;5.80;5.30;;;;;;;17.18;nan;97307.63;4931451;28;20294;-62
2023/04/30 09:49:50;;;;;;;5.37;4.87;;;;;;;17.32;nan;97321.69;4906537;28;20557;-60
2023/04/30 09:52:19;;;;;;;5.13;4.60;;;;;;;17.33;nan;97331.38;4915186;28;20218;-62
2023/04/30 09:54:48;;;;;;;4.37;3.60;;;;;;;16.78;nan;97308.84;4929239;28;20202;-61
2023/04/30 09:57:16;;;;;;;4.30;4.07;;;;;;;16.14;nan;97338.38;4910612;28;20382;-61
2023/04/30 09:59:45;;;;;;;4.17;3.87;;;;;;;15.81;nan;97331.34;4880602;28;20838;-63
2023/04/30 10:02:15;;;;;;;4.30;3.90;;;;;;;15.40;nan;97324.56;4899081;28;20868;-61
2023/04/30 10:04:45;;;;;;;5.17;4.43;;;;;;;15.41;nan;97321.66;4895287;28;20790;-62
2023/04/30 10:07:16;;;;;;;5.70;5.30;;;;;;;15.32;nan;97323.75;4911746;28;20218;-62
2023/04/30 10:09:50;;;;;;;5.37;4.97;;;;;;;15.40;nan;97317.34;4935534;28;20217;-62
2023/04/30 10:12:22;;;;;;;5.43;5.03;;;;;;;15.53;nan;97327.16;4924545;28;20800;-63
2023/04/30 10:14:52;;;;;;;5.60;5.13;;;;;;;15.66;nan;97323.63;4930852;28;20210;-63
2023/04/30 10:17:24;;;;;;;5.47;5.07;;;;;;;15.77;nan;97298.88;4873934;28;20872;-63
2023/04/30 10:19:52;;;;;;;6.23;5.73;;;;;;;16.08;nan;97309.00;4908117;28;20210;-63
2023/04/30 10:22:20;;;;;;;5.20;4.80;;;;;;;16.29;nan;97305.16;4909851;28;20204;-62
2023/04/30 10:24:48;;;;;;;5.57;5.10;;;;;;;16.20;nan;97317.97;4935108;28;20218;-62
2023/04/30 10:27:16;;;;;;;5.50;5.10;;;;;;;15.84;nan;97320.22;4911004;28;20833;-62
2023/04/30 10:29:44;;;;;;;5.30;4.77;;;;;;;15.63;nan;97302.69;4927044;28;20703;-64
2023/04/30 10:32:13;;;;;;;5.37;4.70;;;;;;;15.37;nan;97315.09;4884621;28;20626;-61
2023/04/30 10:34:53;;;;;;;5.37;5.07;;;;;;;15.54;nan;97302.09;4904021;28;23546;-64
2023/04/30 10:37:34;;;;;;;6.07;5.57;;;;;;;15.38;nan;97308.75;4909695;28;20242;-65
2023/04/30 10:40:04;;;;;;;5.77;5.30;;;;;;;14.77;nan;97305.41;4936770;28;20253;-64
2023/04/30 10:42:34;;;;;;;5.10;4.80;;;;;;;14.97;nan;97305.41;4935956;28;20277;-65
2023/04/30 10:45:03;;;;;;;5.87;5.37;;;;;;;15.61;nan;97294.06;4913624;28;20225;-62
2023/04/30 10:47:31;;;;;;;4.97;4.57;;;;;;;15.97;nan;97289.13;4885087;28;20250;-63
2023/04/30 10:50:08;;;;;;;5.17;4.73;;;;;;;16.24;nan;97284.41;4909629;28;20209;-65
2023/04/30 10:52:38;;;;;;;5.10;4.70;;;;;;;16.63;nan;97284.31;4911939;28;20709;-64
2023/04/30 10:55:07;;;;;;;4.70;4.40;;;;;;;16.47;nan;97281.13;4925808;28;20233;-60
2023/04/30 10:57:41;;;;;;;4.87;4.57;;;;;;;16.85;nan;97270.47;4935200;28;20738;-64
2023/04/30 11:00:20;;;;;;;4.40;4.00;;;;;;;17.17;nan;97281.06;4942737;28;20213;-63
2023/04/30 11:02:48;;;;;;;4.70;4.40;;;;;;;16.90;nan;97276.81;4878900;28;20702;-63
2023/04/30 11:05:18;;;;;;;4.30;4.00;;;;;;;17.21;nan;97287.63;4941360;28;20237;-67
2023/04/30 11:07:48;;;;;;;4.23;4.03;;;;;;;17.40;nan;97280.38;4884386;28;20360;-67
2023/04/30 11:10:16;;;;;;;5.00;4.57;;;;;;;17.32;nan;97270.81;4937760;28;20300;-67
2023/04/30 11:12:48;;;;;;;3.87;3.60;;;;;;;17.15;nan;97277.81;4912161;28;20359;-64
2023/04/30 11:15:18;;;;;;;4.30;4.00;;;;;;;17.04;nan;97268.66;4940508;28;20222;-61
2023/04/30 11:17:48;;;;;;;4.00;3.80;;;;;;;17.17;nan;97279.22;4862297;28;21068;-61
2023/04/30 11:20:22;;;;;;;3.50;3.30;;;;;;;17.32;nan;97260.09;4938692;28;20218;-62
2023/04/30 11:23:08;;;;;;;3.63;3.43;;;;;;;17.28;nan;97250.06;4907192;28;20380;-61
2023/04/30 11:25:40;;;;;;;3.70;3.50;;;;;;;17.85;nan;97260.41;4914315;28;20234;-63
2023/04/30 11:28:11;;;;;;;4.20;4.00;;;;;;;17.61;nan;97265.69;4937925;28;20239;-61
2023/04/30 11:30:40;;;;;;;3.70;3.50;;;;;;;17.32;nan;97269.97;4929982;28;20211;-62
2023/04/30 11:33:07;;;;;;;3.93;3.60;;;;;;;16.85;nan;97265.97;4890737;28;20218;-62
2023/04/30 11:35:38;;;;;;;3.63;3.43;;;;;;;17.00;nan;97251.41;4914434;28;20222;-59
2023/04/30 11:38:07;;;;;;;4.28;3.97;;;;;;;16.86;nan;97256.09;4931914;28;20846;-58
2023/04/30 11:40:35;;;;;;;3.63;3.43;;;;;;;16.98;nan;97266.88;4914830;28;20214;-60
2023/04/30 11:43:03;;;;;;;4.40;4.00;;;;;;;17.08;nan;97251.13;4922076;28;20258;-63
2023/04/30 11:45:31;;;;;;;3.93;3.63;;;;;;;17.43;nan;97247.81;4924587;28;20218;-62
2023/04/30 11:47:59;;;;;;;4.30;4.00;;;;;;;17.75;nan;97246.75;4892299;28;20791;-65
2023/04/30 11:50:28;;;;;;;3.30;3.10;;;;;;;18.18;nan;97243.03;4936603;28;20254;-62
2023/04/30 11:53:00;;;;;;;3.20;3.07;;;;;;;18.31;nan;97244.66;4904732;28;20357;-62
2023/04/30 11:55:29;;;;;;;3.77;3.57;;;;;;;18.44;nan;97243.63;4911972;28;20257;-63
2023/04/30 11:57:58;;;;;;;4.13;3.83;;;;;;;18.25;nan;97239.41;4932726;28;20538;-60